sensor_id;sensor_type;location;lat;lon;timestamp;pressure;altitude;pressure_sealevel;temperature;humidity
8398;BME280;4236;54.504;9.588;2023-07-16T00:01:17;100615.78;;;18.86;100.00
8398;BME280;4236;54.504;9.588;2023-07-16T00:03:45;100623.59;;;18.82;100.00
8398;BME280;4236;54.504;9.588;2023-07-16T00:06:13;100631.69;;;18.82;100.00
8398;BME280;4236;54.504;9.588;2023-07-16T00:08:42;100656.50;;;18.79;100.00
8398;BME280;4236;54.504;9.588;2023-07-16T00:11:10;100655.63;;;18.73;100.00
8398;BME280;4236;54.504;9.588;2023-07-16T00:13:37;100639.38;;;18.68;100.00
8398;BME280;4236;54.504;9.588;2023-07-16T00:16:07;100633.09;;;18.63;100.00
8398;BME280;4236;54.504;9.588;2023-07-16T00:18:35;100617.72;;;18.63;100.00
8398;BME280;4236;54.504;9.588;2023-07-16T00:21:03;100619.09;;;18.66;100.00
8398;BME280;4236;54.504;9.588;2023-07-16T00:23:30;100627.38;;;18.59;100.00
8398;BME280;4236;54.504;9.588;2023-07-16T00:25:59;100625.75;;;18.58;100.00
8398;BME280;4236;54.504;9.588;2023-07-16T00:28:27;100614.88;;;18.53;100.00
8398;BME280;4236;54.504;9.588;2023-07-16T00:30:55;100637.22;;;18.49;100.00
8398;BME280;4236;54.504;9.588;2023-07-16T00:33:22;100631.00;;;18.48;100.00
8398;BME280;4236;54.504;9.588;2023-07-16T00:35:50;100623.72;;;18.49;100.00
8398;BME280;4236;54.504;9.588;2023-07-16T00:38:18;100615.03;;;18.47;100.00
8398;BME280;4236;54.504;9.588;2023-07-16T00:40:46;100628.88;;;18.50;100.00
8398;BME280;4236;54.504;9.588;2023-07-16T00:43:16;100636.16;;;18.50;100.00
8398;BME280;4236;54.504;9.588;2023-07-16T00:45:45;100642.03;;;18.47;100.00
8398;BME280;4236;54.504;9.588;2023-07-16T00:48:13;100648.25;;;18.47;100.00
8398;BME280;4236;54.504;9.588;2023-07-16T00:50:41;100657.19;;;18.48;100.00
8398;BME280;4236;54.504;9.588;2023-07-16T00:53:09;100670.63;;;18.43;100.00
8398;BME280;4236;54.504;9.588;2023-07-16T00:55:38;100672.50;;;18.42;100.00
8398;BME280;4236;54.504;9.588;2023-07-16T00:58:06;100658.34;;;18.35;100.00
8398;BME280;4236;54.504;9.588;2023-07-16T01:00:37;100662.44;;;18.38;100.00
8398;BME280;4236;54.504;9.588;2023-07-16T01:03:06;100652.72;;;18.37;100.00
8398;BME280;4236;54.504;9.588;2023-07-16T01:05:41;100635.94;;;18.35;100.00
8398;BME280;4236;54.504;9.588;2023-07-16T01:08:13;100631.34;;;18.35;100.00
8398;BME280;4236;54.504;9.588;2023-07-16T01:10:42;100612.47;;;18.35;100.00
8398;BME280;4236;54.504;9.588;2023-07-16T01:13:11;100604.13;;;18.37;100.00
8398;BME280;4236;54.504;9.588;2023-07-16T01:15:40;100609.75;;;18.35;100.00
8398;BME280;4236;54.504;9.588;2023-07-16T01:18:08;100620.56;;;18.35;100.00
8398;BME280;4236;54.504;9.588;2023-07-16T01:20:36;100634.31;;;18.34;100.00
8398;BME280;4236;54.504;9.588;2023-07-16T01:23:13;100641.59;;;18.33;100.00
8398;BME280;4236;54.504;9.588;2023-07-16T01:25:56;100632.03;;;18.25;100.00
8398;BME280;4236;54.504;9.588;2023-07-16T01:28:43;100614.78;;;18.27;100.00
8398;BME280;4236;54.504;9.588;2023-07-16T01:31:14;100602.09;;;18.27;100.00
8398;BME280;4236;54.504;9.588;2023-07-16T01:33:43;100612.09;;;18.27;100.00
8398;BME280;4236;54.504;9.588;2023-07-16T01:36:12;100610.94;;;18.22;100.00
8398;BME280;4236;54.504;9.588;2023-07-16T01:38:41;100607.69;;;18.20;100.00
8398;BME280;4236;54.504;9.588;2023-07-16T01:41:10;100615.78;;;18.20;100.00
8398;BME280;4236;54.504;9.588;2023-07-16T01:43:38;100621.34;;;18.14;100.00
8398;BME280;4236;54.504;9.588;2023-07-16T01:46:06;100620.28;;;18.15;100.00
8398;BME280;4236;54.504;9.588;2023-07-16T01:48:37;100625.69;;;18.15;100.00
8398;BME280;4236;54.504;9.588;2023-07-16T01:51:05;100611.63;;;18.13;100.00
8398;BME280;4236;54.504;9.588;2023-07-16T01:53:33;100620.03;;;18.16;100.00
8398;BME280;4236;54.504;9.588;2023-07-16T01:56:01;100636.00;;;18.18;100.00
8398;BME280;4236;54.504;9.588;2023-07-16T01:58:30;100636.50;;;18.15;100.00
8398;BME280;4236;54.504;9.588;2023-07-16T02:00:58;100642.94;;;18.14;100.00
8398;BME280;4236;54.504;9.588;2023-07-16T02:03:27;100637.47;;;18.09;100.00
8398;BME280;4236;54.504;9.588;2023-07-16T02:05:57;100640.19;;;18.09;100.00
8398;BME280;4236;54.504;9.588;2023-07-16T02:08:25;100640.50;;;18.12;100.00
8398;BME280;4236;54.504;9.588;2023-07-16T02:10:54;100647.19;;;18.10;100.00
8398;BME280;4236;54.504;9.588;2023-07-16T02:13:22;100652.84;;;18.08;100.00
8398;BME280;4236;54.504;9.588;2023-07-16T02:15:50;100654.22;;;18.11;100.00
8398;BME280;4236;54.504;9.588;2023-07-16T02:18:18;100660.94;;;18.08;100.00
8398;BME280;4236;54.504;9.588;2023-07-16T02:20:45;100648.78;;;18.06;100.00
8398;BME280;4236;54.504;9.588;2023-07-16T02:23:14;100649.00;;;18.04;100.00
8398;BME280;4236;54.504;9.588;2023-07-16T02:25:42;100653.34;;;18.05;100.00
8398;BME280;4236;54.504;9.588;2023-07-16T02:28:10;100671.41;;;18.05;100.00
8398;BME280;4236;54.504;9.588;2023-07-16T02:30:40;100664.63;;;18.02;100.00
8398;BME280;4236;54.504;9.588;2023-07-16T02:33:08;100669.69;;;17.99;100.00
8398;BME280;4236;54.504;9.588;2023-07-16T02:35:35;100676.41;;;17.96;100.00
8398;BME280;4236;54.504;9.588;2023-07-16T02:38:03;100680.91;;;17.91;100.00
8398;BME280;4236;54.504;9.588;2023-07-16T02:40:32;100687.38;;;17.90;100.00
8398;BME280;4236;54.504;9.588;2023-07-16T02:43:00;100683.22;;;17.82;100.00
8398;BME280;4236;54.504;9.588;2023-07-16T02:45:27;100677.72;;;17.77;100.00
8398;BME280;4236;54.504;9.588;2023-07-16T02:47:55;100687.59;;;17.72;100.00
8398;BME280;4236;54.504;9.588;2023-07-16T02:50:23;100694.09;;;17.71;100.00
8398;BME280;4236;54.504;9.588;2023-07-16T02:52:50;100702.66;;;17.67;100.00
8398;BME280;4236;54.504;9.588;2023-07-16T02:55:18;100697.75;;;17.64;100.00
8398;BME280;4236;54.504;9.588;2023-07-16T02:57:47;100690.16;;;17.61;100.00
8398;BME280;4236;54.504;9.588;2023-07-16T03:00:15;100696.38;;;17.62;100.00
8398;BME280;4236;54.504;9.588;2023-07-16T03:02:43;100700.13;;;17.61;100.00
8398;BME280;4236;54.504;9.588;2023-07-16T03:05:10;100691.47;;;17.59;100.00
8398;BME280;4236;54.504;9.588;2023-07-16T03:07:38;100695.78;;;17.60;100.00
8398;BME280;4236;54.504;9.588;2023-07-16T03:10:06;100693.91;;;17.60;100.00
8398;BME280;4236;54.504;9.588;2023-07-16T03:12:35;100691.69;;;17.57;100.00
8398;BME280;4236;54.504;9.588;2023-07-16T03:15:05;100696.25;;;17.57;100.00
8398;BME280;4236;54.504;9.588;2023-07-16T03:17:33;100697.34;;;17.56;100.00
8398;BME280;4236;54.504;9.588;2023-07-16T03:20:01;100684.31;;;17.53;100.00
8398;BME280;4236;54.504;9.588;2023-07-16T03:22:30;100684.53;;;17.51;100.00
8398;BME280;4236;54.504;9.588;2023-07-16T03:24:57;100678.91;;;17.53;100.00
8398;BME280;4236;54.504;9.588;2023-07-16T03:27:25;100678.91;;;17.53;100.00
8398;BME280;4236;54.504;9.588;2023-07-16T03:29:53;100687.00;;;17.53;100.00
8398;BME280;4236;54.504;9.588;2023-07-16T03:32:22;100685.72;;;17.55;100.00
8398;BME280;4236;54.504;9.588;2023-07-16T03:35:00;100683.22;;;17.54;100.00
8398;BME280;4236;54.504;9.588;2023-07-16T03:37:27;100686.56;;;17.56;100.00
8398;BME280;4236;54.504;9.588;2023-07-16T03:39:55;100686.56;;;17.56;100.00
8398;BME280;4236;54.504;9.588;2023-07-16T03:42:23;100691.47;;;17.59;100.00
8398;BME280;4236;54.504;9.588;2023-07-16T03:44:50;100684.41;;;17.58;100.00
8398;BME280;4236;54.504;9.588;2023-07-16T03:47:18;100680.41;;;17.60;100.00
8398;BME280;4236;54.504;9.588;2023-07-16T03:49:47;100682.06;;;17.61;100.00
8398;BME280;4236;54.504;9.588;2023-07-16T03:52:15;100684.50;;;17.63;100.00
8398;BME280;4236;54.504;9.588;2023-07-16T03:54:42;100678.06;;;17.64;100.00
8398;BME280;4236;54.504;9.588;2023-07-16T03:57:10;100666.53;;;17.68;100.00
8398;BME280;4236;54.504;9.588;2023-07-16T03:59:38;100668.16;;;17.69;100.00
8398;BME280;4236;54.504;9.588;2023-07-16T04:02:05;100674.59;;;17.68;100.00
8398;BME280;4236;54.504;9.588;2023-07-16T04:04:34;100678.38;;;17.67;100.00
8398;BME280;4236;54.504;9.588;2023-07-16T04:07:03;100678.72;;;17.71;100.00
8398;BME280;4236;54.504;9.588;2023-07-16T04:09:31;100673.88;;;17.73;100.00
8398;BME280;4236;54.504;9.588;2023-07-16T04:11:58;100685.81;;;17.77;100.00
8398;BME280;4236;54.504;9.588;2023-07-16T04:14:26;100683.22;;;17.82;100.00
8398;BME280;4236;54.504;9.588;2023-07-16T04:16:54;100686.06;;;17.92;100.00
8398;BME280;4236;54.504;9.588;2023-07-16T04:19:22;100694.56;;;18.01;100.00
8398;BME280;4236;54.504;9.588;2023-07-16T04:21:50;100690.97;;;18.12;100.00
8398;BME280;4236;54.504;9.588;2023-07-16T04:24:19;100685.47;;;18.23;100.00
8398;BME280;4236;54.504;9.588;2023-07-16T04:26:46;100679.44;;;18.55;100.00
8398;BME280;4236;54.504;9.588;2023-07-16T04:29:14;100682.47;;;18.80;100.00
8398;BME280;4236;54.504;9.588;2023-07-16T04:31:43;100685.78;;;19.35;100.00
8398;BME280;4236;54.504;9.588;2023-07-16T04:34:12;100679.66;;;20.46;100.00
8398;BME280;4236;54.504;9.588;2023-07-16T04:36:42;100675.34;;;21.27;100.00
8398;BME280;4236;54.504;9.588;2023-07-16T04:39:10;100669.75;;;21.89;100.00
8398;BME280;4236;54.504;9.588;2023-07-16T04:41:39;100664.81;;;22.21;100.00
8398;BME280;4236;54.504;9.588;2023-07-16T04:44:07;100664.44;;;23.12;100.00
8398;BME280;4236;54.504;9.588;2023-07-16T04:46:35;100662.78;;;23.60;100.00
8398;BME280;4236;54.504;9.588;2023-07-16T04:49:04;100660.44;;;23.48;100.00
8398;BME280;4236;54.504;9.588;2023-07-16T04:51:32;100663.03;;;22.71;100.00
8398;BME280;4236;54.504;9.588;2023-07-16T04:54:03;100650.34;;;23.83;100.00
8398;BME280;4236;54.504;9.588;2023-07-16T04:56:30;100653.81;;;24.46;100.00
8398;BME280;4236;54.504;9.588;2023-07-16T04:59:00;100649.38;;;25.16;100.00
8398;BME280;4236;54.504;9.588;2023-07-16T05:01:27;100659.09;;;25.92;100.00
8398;BME280;4236;54.504;9.588;2023-07-16T05:03:55;100662.94;;;26.50;96.52
8398;BME280;4236;54.504;9.588;2023-07-16T05:06:23;100663.09;;;27.08;96.02
8398;BME280;4236;54.504;9.588;2023-07-16T05:08:50;100679.03;;;27.42;84.77
8398;BME280;4236;54.504;9.588;2023-07-16T05:11:20;100680.84;;;27.69;72.16
8398;BME280;4236;54.504;9.588;2023-07-16T05:13:48;100680.75;;;27.74;76.64
8398;BME280;4236;54.504;9.588;2023-07-16T05:16:17;100676.84;;;27.97;72.42
8398;BME280;4236;54.504;9.588;2023-07-16T05:18:45;100678.50;;;28.29;65.62
8398;BME280;4236;54.504;9.588;2023-07-16T05:21:14;100677.81;;;28.54;70.25
8398;BME280;4236;54.504;9.588;2023-07-16T05:23:41;100668.69;;;28.76;62.74
8398;BME280;4236;54.504;9.588;2023-07-16T05:26:09;100678.78;;;29.06;62.43
8398;BME280;4236;54.504;9.588;2023-07-16T05:28:37;100678.81;;;29.32;58.17
8398;BME280;4236;54.504;9.588;2023-07-16T05:31:04;100683.81;;;29.55;59.75
8398;BME280;4236;54.504;9.588;2023-07-16T05:33:33;100680.72;;;29.74;61.54
8398;BME280;4236;54.504;9.588;2023-07-16T05:36:01;100688.66;;;29.58;53.81
8398;BME280;4236;54.504;9.588;2023-07-16T05:38:29;100679.75;;;29.79;53.61
8398;BME280;4236;54.504;9.588;2023-07-16T05:41:00;100678.13;;;29.69;53.73
8398;BME280;4236;54.504;9.588;2023-07-16T05:43:28;100685.44;;;29.65;54.51
8398;BME280;4236;54.504;9.588;2023-07-16T05:45:56;100681.38;;;29.45;51.73
8398;BME280;4236;54.504;9.588;2023-07-16T05:48:24;100686.72;;;29.25;54.12
8398;BME280;4236;54.504;9.588;2023-07-16T05:50:53;100683.16;;;29.24;52.47
8398;BME280;4236;54.504;9.588;2023-07-16T05:53:21;100694.66;;;29.52;52.58
8398;BME280;4236;54.504;9.588;2023-07-16T05:55:49;100698.34;;;29.73;51.94
8398;BME280;4236;54.504;9.588;2023-07-16T05:58:18;100687.34;;;29.90;52.53
8398;BME280;4236;54.504;9.588;2023-07-16T06:00:46;100698.34;;;30.07;51.98
8398;BME280;4236;54.504;9.588;2023-07-16T06:03:13;100699.34;;;30.41;51.07
8398;BME280;4236;54.504;9.588;2023-07-16T06:05:43;100697.16;;;30.17;48.57
8398;BME280;4236;54.504;9.588;2023-07-16T06:08:12;100712.97;;;30.37;48.95
8398;BME280;4236;54.504;9.588;2023-07-16T06:10:40;100703.28;;;30.69;47.38
8398;BME280;4236;54.504;9.588;2023-07-16T06:13:07;100698.91;;;30.30;46.95
8398;BME280;4236;54.504;9.588;2023-07-16T06:15:36;100700.50;;;30.40;46.05
8398;BME280;4236;54.504;9.588;2023-07-16T06:18:04;100708.16;;;30.93;45.48
8398;BME280;4236;54.504;9.588;2023-07-16T06:20:32;100710.78;;;31.18;45.49
8398;BME280;4236;54.504;9.588;2023-07-16T06:22:59;100705.47;;;31.13;45.05
8398;BME280;4236;54.504;9.588;2023-07-16T06:25:29;100703.59;;;31.05;45.53
8398;BME280;4236;54.504;9.588;2023-07-16T06:27:56;100706.28;;;31.14;45.59
8398;BME280;4236;54.504;9.588;2023-07-16T06:30:24;100707.25;;;31.18;45.06
8398;BME280;4236;54.504;9.588;2023-07-16T06:32:52;100714.25;;;31.57;45.18
8398;BME280;4236;54.504;9.588;2023-07-16T06:35:22;100693.44;;;30.97;44.75
8398;BME280;4236;54.504;9.588;2023-07-16T06:37:50;100712.94;;;31.13;45.32
8398;BME280;4236;54.504;9.588;2023-07-16T06:40:18;100713.69;;;30.93;46.27
8398;BME280;4236;54.504;9.588;2023-07-16T06:42:47;100717.16;;;30.81;45.41
8398;BME280;4236;54.504;9.588;2023-07-16T06:45:16;100707.53;;;30.96;45.18
8398;BME280;4236;54.504;9.588;2023-07-16T06:47:44;100709.16;;;30.97;44.76
8398;BME280;4236;54.504;9.588;2023-07-16T06:50:12;100716.25;;;30.22;44.93
8398;BME280;4236;54.504;9.588;2023-07-16T06:52:40;100718.06;;;30.01;45.96
8398;BME280;4236;54.504;9.588;2023-07-16T06:55:08;100719.16;;;30.17;47.19
8398;BME280;4236;54.504;9.588;2023-07-16T06:57:35;100725.66;;;29.70;46.64
8398;BME280;4236;54.504;9.588;2023-07-16T07:00:06;100716.72;;;29.21;47.33
8398;BME280;4236;54.504;9.588;2023-07-16T07:02:37;100741.91;;;28.05;49.71
8398;BME280;4236;54.504;9.588;2023-07-16T07:05:06;100730.94;;;27.83;51.56
8398;BME280;4236;54.504;9.588;2023-07-16T07:07:34;100739.03;;;27.16;53.78
8398;BME280;4236;54.504;9.588;2023-07-16T07:10:01;100742.44;;;27.49;53.05
8398;BME280;4236;54.504;9.588;2023-07-16T07:12:29;100738.53;;;28.08;52.68
8398;BME280;4236;54.504;9.588;2023-07-16T07:15:01;100743.78;;;28.18;52.89
8398;BME280;4236;54.504;9.588;2023-07-16T07:17:30;100740.34;;;27.90;52.08
8398;BME280;4236;54.504;9.588;2023-07-16T07:19:58;100747.31;;;27.25;53.28
8398;BME280;4236;54.504;9.588;2023-07-16T07:22:26;100737.34;;;27.56;54.75
8398;BME280;4236;54.504;9.588;2023-07-16T07:24:53;100746.97;;;28.12;53.30
8398;BME280;4236;54.504;9.588;2023-07-16T07:27:21;100739.78;;;27.80;51.84
8398;BME280;4236;54.504;9.588;2023-07-16T07:29:49;100736.91;;;27.85;51.74
8398;BME280;4236;54.504;9.588;2023-07-16T07:32:19;100733.09;;;28.39;50.58
8398;BME280;4236;54.504;9.588;2023-07-16T07:34:48;100742.88;;;28.62;49.78
8398;BME280;4236;54.504;9.588;2023-07-16T07:37:16;100731.06;;;28.92;50.56
8398;BME280;4236;54.504;9.588;2023-07-16T07:39:44;100730.69;;;28.85;50.31
8398;BME280;4236;54.504;9.588;2023-07-16T07:42:14;100731.78;;;29.15;49.28
8398;BME280;4236;54.504;9.588;2023-07-16T07:44:42;100738.66;;;28.95;48.95
8398;BME280;4236;54.504;9.588;2023-07-16T07:47:09;100747.13;;;27.93;49.92
8398;BME280;4236;54.504;9.588;2023-07-16T07:49:37;100739.16;;;28.27;50.06
8398;BME280;4236;54.504;9.588;2023-07-16T07:52:07;100743.56;;;28.68;49.56
8398;BME280;4236;54.504;9.588;2023-07-16T07:54:35;100750.25;;;28.84;48.86
8398;BME280;4236;54.504;9.588;2023-07-16T07:57:04;100759.28;;;28.00;50.07
8398;BME280;4236;54.504;9.588;2023-07-16T07:59:32;100742.78;;;28.14;51.31
8398;BME280;4236;54.504;9.588;2023-07-16T08:02:00;100754.34;;;28.33;52.05
8398;BME280;4236;54.504;9.588;2023-07-16T08:04:29;100745.66;;;28.09;49.96
8398;BME280;4236;54.504;9.588;2023-07-16T08:06:58;100768.09;;;27.53;50.52
8398;BME280;4236;54.504;9.588;2023-07-16T08:09:27;100754.94;;;27.01;52.36
8398;BME280;4236;54.504;9.588;2023-07-16T08:11:55;100757.06;;;26.63;52.39
8398;BME280;4236;54.504;9.588;2023-07-16T08:14:22;100770.84;;;26.25;53.99
8398;BME280;4236;54.504;9.588;2023-07-16T08:16:50;100771.28;;;26.14;54.99
8398;BME280;4236;54.504;9.588;2023-07-16T08:19:18;100757.00;;;26.35;56.20
8398;BME280;4236;54.504;9.588;2023-07-16T08:21:46;100760.78;;;26.53;55.74
8398;BME280;4236;54.504;9.588;2023-07-16T08:24:14;100762.34;;;26.27;55.01
8398;BME280;4236;54.504;9.588;2023-07-16T08:26:43;100764.25;;;25.94;54.94
8398;BME280;4236;54.504;9.588;2023-07-16T08:29:11;100762.94;;;25.92;56.04
8398;BME280;4236;54.504;9.588;2023-07-16T08:31:39;100772.88;;;25.45;58.51
8398;BME280;4236;54.504;9.588;2023-07-16T08:34:08;100760.38;;;25.39;58.28
8398;BME280;4236;54.504;9.588;2023-07-16T08:36:36;100773.63;;;25.51;58.76
8398;BME280;4236;54.504;9.588;2023-07-16T08:39:04;100768.34;;;25.17;57.07
8398;BME280;4236;54.504;9.588;2023-07-16T08:41:35;100771.47;;;25.29;59.79
8398;BME280;4236;54.504;9.588;2023-07-16T08:44:05;100774.31;;;25.19;60.47
8398;BME280;4236;54.504;9.588;2023-07-16T08:46:36;100774.88;;;24.68;63.22
8398;BME280;4236;54.504;9.588;2023-07-16T08:49:09;100774.72;;;24.60;63.28
8398;BME280;4236;54.504;9.588;2023-07-16T08:51:39;100772.53;;;24.33;64.38
8398;BME280;4236;54.504;9.588;2023-07-16T08:54:09;100784.19;;;24.39;64.19
8398;BME280;4236;54.504;9.588;2023-07-16T08:56:37;100794.78;;;24.11;67.44
8398;BME280;4236;54.504;9.588;2023-07-16T08:59:07;100795.72;;;24.31;69.40
8398;BME280;4236;54.504;9.588;2023-07-16T09:01:37;100787.47;;;24.36;69.76
8398;BME280;4236;54.504;9.588;2023-07-16T09:04:08;100796.00;;;24.87;68.22
8398;BME280;4236;54.504;9.588;2023-07-16T09:06:36;100795.88;;;24.68;68.79
8398;BME280;4236;54.504;9.588;2023-07-16T09:09:03;100787.19;;;24.37;70.42
8398;BME280;4236;54.504;9.588;2023-07-16T09:11:33;100795.75;;;24.26;71.58
8398;BME280;4236;54.504;9.588;2023-07-16T09:14:01;100803.56;;;24.66;71.13
8398;BME280;4236;54.504;9.588;2023-07-16T09:16:33;100793.44;;;24.95;69.29
8398;BME280;4236;54.504;9.588;2023-07-16T09:19:06;100804.28;;;25.00;68.98
8398;BME280;4236;54.504;9.588;2023-07-16T09:21:36;100796.47;;;24.65;68.21
8398;BME280;4236;54.504;9.588;2023-07-16T09:24:07;100813.09;;;24.35;71.29
8398;BME280;4236;54.504;9.588;2023-07-16T09:26:36;100815.25;;;23.99;72.66
8398;BME280;4236;54.504;9.588;2023-07-16T09:29:05;100822.41;;;23.90;74.17
8398;BME280;4236;54.504;9.588;2023-07-16T09:31:34;100824.22;;;24.04;75.68
8398;BME280;4236;54.504;9.588;2023-07-16T09:34:02;100813.34;;;24.38;72.84
8398;BME280;4236;54.504;9.588;2023-07-16T09:36:30;100820.00;;;24.56;72.97
8398;BME280;4236;54.504;9.588;2023-07-16T09:38:59;100819.09;;;24.94;72.83
8398;BME280;4236;54.504;9.588;2023-07-16T09:41:28;100829.78;;;25.14;68.88
8398;BME280;4236;54.504;9.588;2023-07-16T09:43:56;100826.78;;;25.58;70.09
8398;BME280;4236;54.504;9.588;2023-07-16T09:46:24;100831.97;;;25.78;66.00
8398;BME280;4236;54.504;9.588;2023-07-16T09:48:53;100831.44;;;26.14;64.99
8398;BME280;4236;54.504;9.588;2023-07-16T09:51:21;100837.22;;;25.94;64.33
8398;BME280;4236;54.504;9.588;2023-07-16T09:53:50;100836.41;;;25.74;62.64
8398;BME280;4236;54.504;9.588;2023-07-16T09:56:19;100842.00;;;26.20;65.09
8398;BME280;4236;54.504;9.588;2023-07-16T09:58:48;100855.44;;;26.35;66.40
8398;BME280;4236;54.504;9.588;2023-07-16T10:01:20;100854.91;;;26.52;63.27
8398;BME280;4236;54.504;9.588;2023-07-16T10:03:48;100845.34;;;26.50;63.47
8398;BME280;4236;54.504;9.588;2023-07-16T10:06:18;100858.72;;;26.19;63.25
8398;BME280;4236;54.504;9.588;2023-07-16T10:08:49;100870.50;;;25.58;62.85
8398;BME280;4236;54.504;9.588;2023-07-16T10:11:18;100877.38;;;25.27;64.94
8398;BME280;4236;54.504;9.588;2023-07-16T10:13:49;100874.66;;;25.51;64.70
8398;BME280;4236;54.504;9.588;2023-07-16T10:16:20;100876.09;;;25.43;65.71
8398;BME280;4236;54.504;9.588;2023-07-16T10:18:50;100875.06;;;25.15;67.75
8398;BME280;4236;54.504;9.588;2023-07-16T10:21:24;100870.59;;;25.01;69.57
8398;BME280;4236;54.504;9.588;2023-07-16T10:23:57;100874.13;;;24.72;70.55
8398;BME280;4236;54.504;9.588;2023-07-16T10:26:27;100881.34;;;24.19;76.52
8398;BME280;4236;54.504;9.588;2023-07-16T10:28:55;100879.28;;;23.96;84.08
8398;BME280;4236;54.504;9.588;2023-07-16T10:31:24;100894.63;;;23.82;82.99
8398;BME280;4236;54.504;9.588;2023-07-16T10:33:58;100876.09;;;23.89;84.53
8398;BME280;4236;54.504;9.588;2023-07-16T10:36:28;100904.06;;;24.00;80.33
8398;BME280;4236;54.504;9.588;2023-07-16T10:39:02;100910.66;;;24.38;79.75
8398;BME280;4236;54.504;9.588;2023-07-16T10:41:30;100911.47;;;24.72;78.04
8398;BME280;4236;54.504;9.588;2023-07-16T10:43:58;100906.78;;;24.83;74.91
8398;BME280;4236;54.504;9.588;2023-07-16T10:46:26;100898.78;;;24.91;67.70
8398;BME280;4236;54.504;9.588;2023-07-16T10:48:54;100906.81;;;25.06;67.51
8398;BME280;4236;54.504;9.588;2023-07-16T10:51:25;100912.66;;;25.47;65.64
8398;BME280;4236;54.504;9.588;2023-07-16T10:53:56;100912.03;;;25.55;65.12
8398;BME280;4236;54.504;9.588;2023-07-16T10:56:24;100905.03;;;24.92;64.42
8398;BME280;4236;54.504;9.588;2023-07-16T10:58:52;100911.28;;;25.50;65.48
8398;BME280;4236;54.504;9.588;2023-07-16T11:01:20;100909.81;;;25.57;64.87
8398;BME280;4236;54.504;9.588;2023-07-16T11:03:47;100920.81;;;25.95;64.92
8398;BME280;4236;54.504;9.588;2023-07-16T11:06:18;100913.00;;;26.44;63.50
8398;BME280;4236;54.504;9.588;2023-07-16T11:08:46;100907.25;;;26.46;59.19
8398;BME280;4236;54.504;9.588;2023-07-16T11:11:15;100921.78;;;26.92;58.67
8398;BME280;4236;54.504;9.588;2023-07-16T11:13:43;100927.59;;;26.72;56.85
8398;BME280;4236;54.504;9.588;2023-07-16T11:16:15;100925.34;;;26.74;58.11
8398;BME280;4236;54.504;9.588;2023-07-16T11:18:44;100918.47;;;26.76;57.17
8398;BME280;4236;54.504;9.588;2023-07-16T11:21:11;100930.59;;;26.38;57.41
8398;BME280;4236;54.504;9.588;2023-07-16T11:23:39;100933.00;;;25.83;58.76
8398;BME280;4236;54.504;9.588;2023-07-16T11:26:08;100932.72;;;25.61;61.31
8398;BME280;4236;54.504;9.588;2023-07-16T11:28:38;100939.00;;;25.62;63.84
8398;BME280;4236;54.504;9.588;2023-07-16T11:31:14;100947.34;;;25.70;62.42
8398;BME280;4236;54.504;9.588;2023-07-16T11:33:42;100937.63;;;25.36;63.92
8398;BME280;4236;54.504;9.588;2023-07-16T11:36:11;100938.84;;;25.53;62.25
8398;BME280;4236;54.504;9.588;2023-07-16T11:38:39;100931.44;;;25.77;64.77
8398;BME280;4236;54.504;9.588;2023-07-16T11:41:06;100941.56;;;25.96;62.33
8398;BME280;4236;54.504;9.588;2023-07-16T11:43:35;100941.56;;;26.19;61.08
8398;BME280;4236;54.504;9.588;2023-07-16T11:46:14;100953.97;;;25.88;60.30
8398;BME280;4236;54.504;9.588;2023-07-16T11:48:43;100961.81;;;25.47;60.98
8398;BME280;4236;54.504;9.588;2023-07-16T11:51:11;100960.72;;;24.91;61.37
8398;BME280;4236;54.504;9.588;2023-07-16T11:53:39;100984.66;;;24.16;75.46
8398;BME280;4236;54.504;9.588;2023-07-16T11:56:06;100990.56;;;23.64;84.44
8398;BME280;4236;54.504;9.588;2023-07-16T11:58:35;101020.28;;;22.95;96.95
8398;BME280;4236;54.504;9.588;2023-07-16T12:01:04;101028.97;;;22.67;100.00
8398;BME280;4236;54.504;9.588;2023-07-16T12:03:32;101010.69;;;22.62;100.00
8398;BME280;4236;54.504;9.588;2023-07-16T12:06:00;101011.31;;;23.04;100.00
8398;BME280;4236;54.504;9.588;2023-07-16T12:08:27;101006.06;;;23.68;100.00
8398;BME280;4236;54.504;9.588;2023-07-16T12:10:56;100997.47;;;24.10;96.30
8398;BME280;4236;54.504;9.588;2023-07-16T12:13:27;100994.03;;;24.44;92.43
8398;BME280;4236;54.504;9.588;2023-07-16T12:15:55;100991.34;;;24.77;89.26
8398;BME280;4236;54.504;9.588;2023-07-16T12:18:24;100993.28;;;25.11;86.17
8398;BME280;4236;54.504;9.588;2023-07-16T12:20:51;100991.06;;;25.13;83.82
8398;BME280;4236;54.504;9.588;2023-07-16T12:23:20;100988.63;;;25.40;80.59
8398;BME280;4236;54.504;9.588;2023-07-16T12:25:48;100993.16;;;25.21;78.92
8398;BME280;4236;54.504;9.588;2023-07-16T12:28:16;100984.81;;;25.41;75.51
8398;BME280;4236;54.504;9.588;2023-07-16T12:30:44;100992.31;;;25.54;77.62
8398;BME280;4236;54.504;9.588;2023-07-16T12:33:12;100986.44;;;25.66;72.78
8398;BME280;4236;54.504;9.588;2023-07-16T12:35:41;100990.94;;;25.80;71.84
8398;BME280;4236;54.504;9.588;2023-07-16T12:38:08;100999.16;;;25.99;70.99
8398;BME280;4236;54.504;9.588;2023-07-16T12:40:36;100990.50;;;26.34;67.29
8398;BME280;4236;54.504;9.588;2023-07-16T12:43:07;100993.47;;;26.38;64.29
8398;BME280;4236;54.504;9.588;2023-07-16T12:45:34;100979.34;;;26.12;62.93
8398;BME280;4236;54.504;9.588;2023-07-16T12:48:02;100976.84;;;26.53;62.63
8398;BME280;4236;54.504;9.588;2023-07-16T12:50:30;100990.00;;;26.32;61.49
8398;BME280;4236;54.504;9.588;2023-07-16T12:52:59;100992.47;;;26.34;61.11
8398;BME280;4236;54.504;9.588;2023-07-16T12:55:27;100995.63;;;26.60;61.27
8398;BME280;4236;54.504;9.588;2023-07-16T12:57:57;100999.84;;;26.33;61.00
8398;BME280;4236;54.504;9.588;2023-07-16T13:00:25;101013.78;;;26.13;59.92
8398;BME280;4236;54.504;9.588;2023-07-16T13:02:53;100981.50;;;26.15;60.35
8398;BME280;4236;54.504;9.588;2023-07-16T13:05:21;100991.94;;;26.32;59.13
8398;BME280;4236;54.504;9.588;2023-07-16T13:07:48;101001.16;;;26.73;58.83
8398;BME280;4236;54.504;9.588;2023-07-16T13:10:18;100993.53;;;26.89;56.91
8398;BME280;4236;54.504;9.588;2023-07-16T13:12:49;101004.56;;;26.65;57.03
8398;BME280;4236;54.504;9.588;2023-07-16T13:15:17;101014.69;;;26.65;56.61